sensor_id;sensor_type;location;lat;lon;timestamp;temperature;humidity
81524;DHT22;70954;49.500;10.416;2023-11-19T00:01:46;9.10;70.80
81524;DHT22;70954;49.500;10.416;2023-11-19T00:04:12;9.20;70.80
81524;DHT22;70954;49.500;10.416;2023-11-19T00:06:37;9.10;70.80
81524;DHT22;70954;49.500;10.416;2023-11-19T00:09:03;9.20;70.80
81524;DHT22;70954;49.500;10.416;2023-11-19T00:11:28;9.20;70.90
81524;DHT22;70954;49.500;10.416;2023-11-19T00:13:54;9.20;70.90
81524;DHT22;70954;49.500;10.416;2023-11-19T00:16:19;9.20;70.90
81524;DHT22;70954;49.500;10.416;2023-11-19T00:18:45;9.20;70.90
81524;DHT22;70954;49.500;10.416;2023-11-19T00:21:10;9.20;70.90
81524;DHT22;70954;49.500;10.416;2023-11-19T00:23:36;9.20;70.90
81524;DHT22;70954;49.500;10.416;2023-11-19T00:26:01;9.20;70.90
81524;DHT22;70954;49.500;10.416;2023-11-19T00:28:27;9.20;70.90
81524;DHT22;70954;49.500;10.416;2023-11-19T00:30:52;9.20;71.00
81524;DHT22;70954;49.500;10.416;2023-11-19T00:33:18;9.20;70.90
81524;DHT22;70954;49.500;10.416;2023-11-19T00:35:43;9.20;71.00
81524;DHT22;70954;49.500;10.416;2023-11-19T00:38:09;9.20;71.00
81524;DHT22;70954;49.500;10.416;2023-11-19T00:40:34;9.20;71.00
81524;DHT22;70954;49.500;10.416;2023-11-19T00:43:00;9.20;71.00
81524;DHT22;70954;49.500;10.416;2023-11-19T00:45:25;9.20;71.10
81524;DHT22;70954;49.500;10.416;2023-11-19T00:47:50;9.20;71.00
81524;DHT22;70954;49.500;10.416;2023-11-19T00:50:16;9.20;71.10
81524;DHT22;70954;49.500;10.416;2023-11-19T00:52:41;9.20;71.00
81524;DHT22;70954;49.500;10.416;2023-11-19T00:55:07;9.20;71.00
81524;DHT22;70954;49.500;10.416;2023-11-19T00:57:33;9.30;71.00
81524;DHT22;70954;49.500;10.416;2023-11-19T00:59:59;9.30;71.00
81524;DHT22;70954;49.500;10.416;2023-11-19T01:02:25;9.30;71.10
81524;DHT22;70954;49.500;10.416;2023-11-19T01:04:50;9.40;71.10
81524;DHT22;70954;49.500;10.416;2023-11-19T01:07:16;9.30;71.10
81524;DHT22;70954;49.500;10.416;2023-11-19T01:09:42;9.30;71.10
81524;DHT22;70954;49.500;10.416;2023-11-19T01:12:07;9.30;71.20
81524;DHT22;70954;49.500;10.416;2023-11-19T01:14:33;9.40;71.20
81524;DHT22;70954;49.500;10.416;2023-11-19T01:16:58;9.40;71.20
81524;DHT22;70954;49.500;10.416;2023-11-19T01:19:24;9.40;71.20
81524;DHT22;70954;49.500;10.416;2023-11-19T01:21:52;9.40;71.20
81524;DHT22;70954;49.500;10.416;2023-11-19T01:24:18;9.40;71.20
81524;DHT22;70954;49.500;10.416;2023-11-19T01:26:44;9.40;71.20
81524;DHT22;70954;49.500;10.416;2023-11-19T01:29:09;9.40;71.20
81524;DHT22;70954;49.500;10.416;2023-11-19T01:31:35;9.40;71.20
81524;DHT22;70954;49.500;10.416;2023-11-19T01:34:00;9.40;71.30
81524;DHT22;70954;49.500;10.416;2023-11-19T01:36:26;9.40;71.30
81524;DHT22;70954;49.500;10.416;2023-11-19T01:38:51;9.40;71.30
81524;DHT22;70954;49.500;10.416;2023-11-19T01:41:16;9.40;71.40
81524;DHT22;70954;49.500;10.416;2023-11-19T01:43:42;9.40;71.40
81524;DHT22;70954;49.500;10.416;2023-11-19T01:46:08;9.40;71.40
81524;DHT22;70954;49.500;10.416;2023-11-19T01:48:34;9.40;71.40
81524;DHT22;70954;49.500;10.416;2023-11-19T01:51:00;9.40;71.40
81524;DHT22;70954;49.500;10.416;2023-11-19T01:53:26;9.40;71.50
81524;DHT22;70954;49.500;10.416;2023-11-19T01:55:52;9.50;71.50
81524;DHT22;70954;49.500;10.416;2023-11-19T01:58:18;9.50;71.60
81524;DHT22;70954;49.500;10.416;2023-11-19T02:00:45;9.50;71.60
81524;DHT22;70954;49.500;10.416;2023-11-19T02:03:11;9.50;71.60
81524;DHT22;70954;49.500;10.416;2023-11-19T02:05:37;9.50;71.70
81524;DHT22;70954;49.500;10.416;2023-11-19T02:08:04;9.50;71.70
81524;DHT22;70954;49.500;10.416;2023-11-19T02:10:29;9.50;71.70
81524;DHT22;70954;49.500;10.416;2023-11-19T02:12:55;9.50;71.70
81524;DHT22;70954;49.500;10.416;2023-11-19T02:15:20;9.50;71.80
81524;DHT22;70954;49.500;10.416;2023-11-19T02:17:46;9.50;71.90
81524;DHT22;70954;49.500;10.416;2023-11-19T02:20:11;9.50;72.00
81524;DHT22;70954;49.500;10.416;2023-11-19T02:22:37;9.60;72.00
81524;DHT22;70954;49.500;10.416;2023-11-19T02:25:08;9.60;71.90
81524;DHT22;70954;49.500;10.416;2023-11-19T02:27:49;9.60;72.00
81524;DHT22;70954;49.500;10.416;2023-11-19T02:30:16;9.60;72.00
81524;DHT22;70954;49.500;10.416;2023-11-19T02:32:42;9.60;72.00
81524;DHT22;70954;49.500;10.416;2023-11-19T02:35:07;9.70;72.00
81524;DHT22;70954;49.500;10.416;2023-11-19T02:37:34;9.70;72.00
81524;DHT22;70954;49.500;10.416;2023-11-19T02:39:59;9.70;72.00
81524;DHT22;70954;49.500;10.416;2023-11-19T02:42:25;9.70;71.90
81524;DHT22;70954;49.500;10.416;2023-11-19T02:44:50;9.70;72.00
81524;DHT22;70954;49.500;10.416;2023-11-19T02:47:16;9.70;72.00
81524;DHT22;70954;49.500;10.416;2023-11-19T02:49:41;9.70;72.00
81524;DHT22;70954;49.500;10.416;2023-11-19T02:52:07;9.70;72.00
81524;DHT22;70954;49.500;10.416;2023-11-19T02:54:32;9.70;72.10
81524;DHT22;70954;49.500;10.416;2023-11-19T02:56:58;9.80;72.20
81524;DHT22;70954;49.500;10.416;2023-11-19T02:59:23;9.80;72.20
81524;DHT22;70954;49.500;10.416;2023-11-19T03:01:49;9.80;72.20
81524;DHT22;70954;49.500;10.416;2023-11-19T03:04:14;9.80;72.50
81524;DHT22;70954;49.500;10.416;2023-11-19T03:06:40;9.80;72.50
81524;DHT22;70954;49.500;10.416;2023-11-19T03:09:05;9.80;72.40
81524;DHT22;70954;49.500;10.416;2023-11-19T03:11:30;9.80;72.50
81524;DHT22;70954;49.500;10.416;2023-11-19T03:13:56;9.80;72.60
81524;DHT22;70954;49.500;10.416;2023-11-19T03:16:21;9.80;72.60
81524;DHT22;70954;49.500;10.416;2023-11-19T03:18:47;9.80;72.60
81524;DHT22;70954;49.500;10.416;2023-11-19T03:21:12;9.80;72.60
81524;DHT22;70954;49.500;10.416;2023-11-19T03:23:38;9.80;72.70
81524;DHT22;70954;49.500;10.416;2023-11-19T03:26:03;9.90;72.70
81524;DHT22;70954;49.500;10.416;2023-11-19T03:28:29;9.90;72.80
81524;DHT22;70954;49.500;10.416;2023-11-19T03:30:54;9.90;72.90
81524;DHT22;70954;49.500;10.416;2023-11-19T03:33:20;10.00;72.90
81524;DHT22;70954;49.500;10.416;2023-11-19T03:35:45;10.00;73.20
81524;DHT22;70954;49.500;10.416;2023-11-19T03:38:11;10.00;73.10
81524;DHT22;70954;49.500;10.416;2023-11-19T03:40:36;10.00;73.20
81524;DHT22;70954;49.500;10.416;2023-11-19T03:43:02;10.00;73.40
81524;DHT22;70954;49.500;10.416;2023-11-19T03:45:27;10.00;73.60
81524;DHT22;70954;49.500;10.416;2023-11-19T03:47:52;10.00;73.90
81524;DHT22;70954;49.500;10.416;2023-11-19T03:50:18;10.00;73.70
81524;DHT22;70954;49.500;10.416;2023-11-19T03:52:44;10.00;73.90
81524;DHT22;70954;49.500;10.416;2023-11-19T03:55:09;10.00;74.50
81524;DHT22;70954;49.500;10.416;2023-11-19T03:57:35;10.00;74.20
81524;DHT22;70954;49.500;10.416;2023-11-19T04:00:01;10.10;74.50
81524;DHT22;70954;49.500;10.416;2023-11-19T04:02:26;10.10;74.60
81524;DHT22;70954;49.500;10.416;2023-11-19T04:04:52;10.10;74.80
81524;DHT22;70954;49.500;10.416;2023-11-19T04:07:17;10.10;75.30
81524;DHT22;70954;49.500;10.416;2023-11-19T04:09:42;10.10;75.10
81524;DHT22;70954;49.500;10.416;2023-11-19T04:12:08;10.20;75.50
81524;DHT22;70954;49.500;10.416;2023-11-19T04:14:33;10.20;75.50
81524;DHT22;70954;49.500;10.416;2023-11-19T04:16:59;10.20;75.70
81524;DHT22;70954;49.500;10.416;2023-11-19T04:19:24;10.30;75.70
81524;DHT22;70954;49.500;10.416;2023-11-19T04:21:50;10.30;75.50
81524;DHT22;70954;49.500;10.416;2023-11-19T04:24:15;10.30;76.00
81524;DHT22;70954;49.500;10.416;2023-11-19T04:26:41;10.40;76.10
81524;DHT22;70954;49.500;10.416;2023-11-19T04:29:09;10.40;76.50
81524;DHT22;70954;49.500;10.416;2023-11-19T04:31:34;10.50;75.80
81524;DHT22;70954;49.500;10.416;2023-11-19T04:34:00;10.50;75.90
81524;DHT22;70954;49.500;10.416;2023-11-19T04:36:25;10.50;76.20
81524;DHT22;70954;49.500;10.416;2023-11-19T04:38:51;10.60;76.60
81524;DHT22;70954;49.500;10.416;2023-11-19T04:41:16;10.60;76.50
81524;DHT22;70954;49.500;10.416;2023-11-19T04:43:42;10.60;76.00
81524;DHT22;70954;49.500;10.416;2023-11-19T04:46:09;10.70;76.20
81524;DHT22;70954;49.500;10.416;2023-11-19T04:48:35;10.70;76.10
81524;DHT22;70954;49.500;10.416;2023-11-19T04:51:00;10.70;76.40
81524;DHT22;70954;49.500;10.416;2023-11-19T04:53:26;10.80;76.50
81524;DHT22;70954;49.500;10.416;2023-11-19T04:55:51;10.80;76.80
81524;DHT22;70954;49.500;10.416;2023-11-19T04:58:17;10.80;76.60
81524;DHT22;70954;49.500;10.416;2023-11-19T05:00:42;10.90;76.90
81524;DHT22;70954;49.500;10.416;2023-11-19T05:03:08;10.90;77.20
81524;DHT22;70954;49.500;10.416;2023-11-19T05:05:33;10.90;76.80
81524;DHT22;70954;49.500;10.416;2023-11-19T05:07:58;11.00;76.80
81524;DHT22;70954;49.500;10.416;2023-11-19T05:10:24;11.00;76.90
81524;DHT22;70954;49.500;10.416;2023-11-19T05:12:49;11.00;77.00
81524;DHT22;70954;49.500;10.416;2023-11-19T05:15:15;11.10;76.90
81524;DHT22;70954;49.500;10.416;2023-11-19T05:17:40;11.10;77.10
81524;DHT22;70954;49.500;10.416;2023-11-19T05:20:06;11.10;76.70
81524;DHT22;70954;49.500;10.416;2023-11-19T05:22:32;11.10;77.20
81524;DHT22;70954;49.500;10.416;2023-11-19T05:24:57;11.10;77.20
81524;DHT22;70954;49.500;10.416;2023-11-19T05:27:22;11.20;77.00
81524;DHT22;70954;49.500;10.416;2023-11-19T05:29:48;11.20;77.30
81524;DHT22;70954;49.500;10.416;2023-11-19T05:32:13;11.20;76.90
81524;DHT22;70954;49.500;10.416;2023-11-19T05:34:39;11.30;76.90
81524;DHT22;70954;49.500;10.416;2023-11-19T05:37:04;11.30;76.90
81524;DHT22;70954;49.500;10.416;2023-11-19T05:39:30;11.30;76.60
81524;DHT22;70954;49.500;10.416;2023-11-19T05:41:55;11.30;76.50
81524;DHT22;70954;49.500;10.416;2023-11-19T05:44:21;11.40;76.50
81524;DHT22;70954;49.500;10.416;2023-11-19T05:46:46;11.40;76.90
81524;DHT22;70954;49.500;10.416;2023-11-19T05:49:12;11.40;76.40
81524;DHT22;70954;49.500;10.416;2023-11-19T05:51:38;11.40;76.70
81524;DHT22;70954;49.500;10.416;2023-11-19T05:54:03;11.40;76.70
81524;DHT22;70954;49.500;10.416;2023-11-19T05:56:29;11.50;76.50
81524;DHT22;70954;49.500;10.416;2023-11-19T05:58:54;11.50;77.10
81524;DHT22;70954;49.500;10.416;2023-11-19T06:01:20;11.50;76.60
81524;DHT22;70954;49.500;10.416;2023-11-19T06:03:46;11.50;76.90
81524;DHT22;70954;49.500;10.416;2023-11-19T06:06:11;11.50;76.80
81524;DHT22;70954;49.500;10.416;2023-11-19T06:08:37;11.50;77.10
81524;DHT22;70954;49.500;10.416;2023-11-19T06:11:02;11.50;77.30
81524;DHT22;70954;49.500;10.416;2023-11-19T06:13:28;11.50;77.60
81524;DHT22;70954;49.500;10.416;2023-11-19T06:15:53;11.50;77.60
81524;DHT22;70954;49.500;10.416;2023-11-19T06:18:18;11.50;77.40
81524;DHT22;70954;49.500;10.416;2023-11-19T06:20:44;11.50;77.20
81524;DHT22;70954;49.500;10.416;2023-11-19T06:23:09;11.50;77.30
81524;DHT22;70954;49.500;10.416;2023-11-19T06:25:35;11.50;77.00
81524;DHT22;70954;49.500;10.416;2023-11-19T06:28:00;11.50;76.90
81524;DHT22;70954;49.500;10.416;2023-11-19T06:30:26;11.60;77.40
81524;DHT22;70954;49.500;10.416;2023-11-19T06:32:51;11.60;77.60
81524;DHT22;70954;49.500;10.416;2023-11-19T06:35:17;11.60;77.70
81524;DHT22;70954;49.500;10.416;2023-11-19T06:37:42;11.60;77.80
81524;DHT22;70954;49.500;10.416;2023-11-19T06:40:08;11.60;78.00
81524;DHT22;70954;49.500;10.416;2023-11-19T06:42:34;11.60;77.80
81524;DHT22;70954;49.500;10.416;2023-11-19T06:44:59;11.70;78.10
81524;DHT22;70954;49.500;10.416;2023-11-19T06:47:27;11.70;77.80
81524;DHT22;70954;49.500;10.416;2023-11-19T06:49:56;11.70;77.90
81524;DHT22;70954;49.500;10.416;2023-11-19T06:52:22;11.70;78.10
81524;DHT22;70954;49.500;10.416;2023-11-19T06:54:47;11.70;78.10
81524;DHT22;70954;49.500;10.416;2023-11-19T06:57:13;11.70;77.50
81524;DHT22;70954;49.500;10.416;2023-11-19T06:59:39;11.70;77.60
81524;DHT22;70954;49.500;10.416;2023-11-19T07:02:05;11.80;77.60
81524;DHT22;70954;49.500;10.416;2023-11-19T07:04:31;11.80;78.20
81524;DHT22;70954;49.500;10.416;2023-11-19T07:06:57;11.80;78.10
81524;DHT22;70954;49.500;10.416;2023-11-19T07:09:22;11.80;78.20
81524;DHT22;70954;49.500;10.416;2023-11-19T07:11:48;11.90;78.10
81524;DHT22;70954;49.500;10.416;2023-11-19T07:14:14;11.90;78.10
81524;DHT22;70954;49.500;10.416;2023-11-19T07:16:39;11.90;77.90
81524;DHT22;70954;49.500;10.416;2023-11-19T07:19:05;11.90;77.90
81524;DHT22;70954;49.500;10.416;2023-11-19T07:21:31;11.90;78.10
81524;DHT22;70954;49.500;10.416;2023-11-19T07:23:57;12.00;77.70
81524;DHT22;70954;49.500;10.416;2023-11-19T07:26:23;12.00;78.00
81524;DHT22;70954;49.500;10.416;2023-11-19T07:28:52;12.00;78.10
81524;DHT22;70954;49.500;10.416;2023-11-19T07:31:17;12.10;77.80
81524;DHT22;70954;49.500;10.416;2023-11-19T07:33:43;12.10;78.30
81524;DHT22;70954;49.500;10.416;2023-11-19T07:36:09;12.10;78.20
81524;DHT22;70954;49.500;10.416;2023-11-19T07:38:35;12.10;78.40
81524;DHT22;70954;49.500;10.416;2023-11-19T07:41:00;12.10;78.70
81524;DHT22;70954;49.500;10.416;2023-11-19T07:43:26;12.10;78.40
81524;DHT22;70954;49.500;10.416;2023-11-19T07:45:52;12.20;78.20
81524;DHT22;70954;49.500;10.416;2023-11-19T07:48:18;12.20;78.50
81524;DHT22;70954;49.500;10.416;2023-11-19T07:50:43;12.20;78.90
81524;DHT22;70954;49.500;10.416;2023-11-19T07:53:08;12.20;78.90
81524;DHT22;70954;49.500;10.416;2023-11-19T07:55:34;12.20;79.00
81524;DHT22;70954;49.500;10.416;2023-11-19T07:58:00;12.30;78.90
81524;DHT22;70954;49.500;10.416;2023-11-19T08:00:25;12.30;79.30
81524;DHT22;70954;49.500;10.416;2023-11-19T08:02:50;12.30;79.20
81524;DHT22;70954;49.500;10.416;2023-11-19T08:05:16;12.40;79.20
81524;DHT22;70954;49.500;10.416;2023-11-19T08:07:41;12.40;79.40
81524;DHT22;70954;49.500;10.416;2023-11-19T08:10:07;12.50;79.60
81524;DHT22;70954;49.500;10.416;2023-11-19T08:12:32;12.50;79.30
81524;DHT22;70954;49.500;10.416;2023-11-19T08:14:58;12.50;79.10
81524;DHT22;70954;49.500;10.416;2023-11-19T08:17:24;12.50;79.10
81524;DHT22;70954;49.500;10.416;2023-11-19T08:19:50;12.60;79.20
81524;DHT22;70954;49.500;10.416;2023-11-19T08:22:16;12.70;79.10
81524;DHT22;70954;49.500;10.416;2023-11-19T08:24:42;12.70;79.00
81524;DHT22;70954;49.500;10.416;2023-11-19T08:27:07;12.80;79.00
81524;DHT22;70954;49.500;10.416;2023-11-19T08:29:32;12.80;79.00
81524;DHT22;70954;49.500;10.416;2023-11-19T08:32:00;12.90;78.90
81524;DHT22;70954;49.500;10.416;2023-11-19T08:34:25;12.90;78.70
81524;DHT22;70954;49.500;10.416;2023-11-19T08:36:51;12.90;78.60
81524;DHT22;70954;49.500;10.416;2023-11-19T08:39:16;13.00;78.40
81524;DHT22;70954;49.500;10.416;2023-11-19T08:41:42;13.00;78.30
81524;DHT22;70954;49.500;10.416;2023-11-19T08:44:08;13.10;78.00
81524;DHT22;70954;49.500;10.416;2023-11-19T08:46:34;13.10;77.90
81524;DHT22;70954;49.500;10.416;2023-11-19T08:48:59;13.10;77.80
81524;DHT22;70954;49.500;10.416;2023-11-19T08:51:25;13.30;77.60
81524;DHT22;70954;49.500;10.416;2023-11-19T08:53:50;13.30;77.50
81524;DHT22;70954;49.500;10.416;2023-11-19T08:56:15;13.30;77.50
81524;DHT22;70954;49.500;10.416;2023-11-19T08:58:41;13.40;77.20
81524;DHT22;70954;49.500;10.416;2023-11-19T09:01:06;13.50;77.00
81524;DHT22;70954;49.500;10.416;2023-11-19T09:03:32;13.50;76.80
81524;DHT22;70954;49.500;10.416;2023-11-19T09:05:57;13.50;76.40
81524;DHT22;70954;49.500;10.416;2023-11-19T09:08:23;13.50;76.20
81524;DHT22;70954;49.500;10.416;2023-11-19T09:10:48;13.60;76.00
81524;DHT22;70954;49.500;10.416;2023-11-19T09:13:14;13.60;75.90
81524;DHT22;70954;49.500;10.416;2023-11-19T09:15:39;13.60;75.90
81524;DHT22;70954;49.500;10.416;2023-11-19T09:18:05;13.60;75.80
81524;DHT22;70954;49.500;10.416;2023-11-19T09:20:30;13.70;75.60
81524;DHT22;70954;49.500;10.416;2023-11-19T09:22:55;13.70;75.70
81524;DHT22;70954;49.500;10.416;2023-11-19T09:25:21;13.70;75.60
81524;DHT22;70954;49.500;10.416;2023-11-19T09:27:46;13.80;75.50
81524;DHT22;70954;49.500;10.416;2023-11-19T09:30:12;13.90;75.50
81524;DHT22;70954;49.500;10.416;2023-11-19T09:32:37;13.90;75.20
81524;DHT22;70954;49.500;10.416;2023-11-19T09:35:03;13.90;75.30
81524;DHT22;70954;49.500;10.416;2023-11-19T09:37:29;13.90;75.20
81524;DHT22;70954;49.500;10.416;2023-11-19T09:39:54;13.90;75.00
81524;DHT22;70954;49.500;10.416;2023-11-19T09:42:20;14.00;74.90
81524;DHT22;70954;49.500;10.416;2023-11-19T09:44:47;14.00;75.00
81524;DHT22;70954;49.500;10.416;2023-11-19T09:47:14;14.00;75.00
81524;DHT22;70954;49.500;10.416;2023-11-19T09:49:39;14.10;75.00
81524;DHT22;70954;49.500;10.416;2023-11-19T09:52:05;14.10;75.00
81524;DHT22;70954;49.500;10.416;2023-11-19T09:54:30;14.20;74.90
81524;DHT22;70954;49.500;10.416;2023-11-19T09:56:57;14.30;74.60
81524;DHT22;70954;49.500;10.416;2023-11-19T09:59:23;14.30;74.40
81524;DHT22;70954;49.500;10.416;2023-11-19T10:01:49;14.30;74.00
81524;DHT22;70954;49.500;10.416;2023-11-19T10:04:15;14.30;74.00
81524;DHT22;70954;49.500;10.416;2023-11-19T10:06:42;14.30;74.10
81524;DHT22;70954;49.500;10.416;2023-11-19T10:09:07;14.30;74.10
81524;DHT22;70954;49.500;10.416;2023-11-19T10:11:33;14.30;74.20
81524;DHT22;70954;49.500;10.416;2023-11-19T10:13:59;14.20;74.30
81524;DHT22;70954;49.500;10.416;2023-11-19T10:16:28;14.20;74.30
81524;DHT22;70954;49.500;10.416;2023-11-19T10:18:55;14.20;74.30
81524;DHT22;70954;49.500;10.416;2023-11-19T10:21:21;14.20;74.20
81524;DHT22;70954;49.500;10.416;2023-11-19T10:23:51;14.10;74.40
81524;DHT22;70954;49.500;10.416;2023-11-19T10:26:18;14.10;74.40
81524;DHT22;70954;49.500;10.416;2023-11-19T10:28:43;14.10;74.30
81524;DHT22;70954;49.500;10.416;2023-11-19T10:31:09;14.10;74.50
81524;DHT22;70954;49.500;10.416;2023-11-19T10:33:34;14.10;74.60
81524;DHT22;70954;49.500;10.416;2023-11-19T10:35:59;14.20;74.70
81524;DHT22;70954;49.500;10.416;2023-11-19T10:38:25;14.20;74.60
81524;DHT22;70954;49.500;10.416;2023-11-19T10:40:52;14.20;74.20
81524;DHT22;70954;49.500;10.416;2023-11-19T10:43:18;14.30;73.80
81524;DHT22;70954;49.500;10.416;2023-11-19T10:45:44;14.30;73.70
81524;DHT22;70954;49.500;10.416;2023-11-19T10:48:10;14.30;73.50
81524;DHT22;70954;49.500;10.416;2023-11-19T10:50:37;14.40;73.20
81524;DHT22;70954;49.500;10.416;2023-11-19T10:53:04;14.40;73.00
81524;DHT22;70954;49.500;10.416;2023-11-19T10:55:32;14.50;73.00
81524;DHT22;70954;49.500;10.416;2023-11-19T10:58:03;14.50;72.80
81524;DHT22;70954;49.500;10.416;2023-11-19T11:00:42;14.60;72.60
81524;DHT22;70954;49.500;10.416;2023-11-19T11:03:14;14.60;72.20
81524;DHT22;70954;49.500;10.416;2023-11-19T11:05:40;14.70;72.60
81524;DHT22;70954;49.500;10.416;2023-11-19T11:08:07;14.70;73.00
81524;DHT22;70954;49.500;10.416;2023-11-19T11:10:37;14.80;72.80
81524;DHT22;70954;49.500;10.416;2023-11-19T11:13:05;14.90;72.60
81524;DHT22;70954;49.500;10.416;2023-11-19T11:15:31;15.00;72.00
81524;DHT22;70954;49.500;10.416;2023-11-19T11:18:02;15.00;71.90
81524;DHT22;70954;49.500;10.416;2023-11-19T11:20:30;15.10;70.50
81524;DHT22;70954;49.500;10.416;2023-11-19T11:28:53;15.30;69.90
81524;DHT22;70954;49.500;10.416;2023-11-19T11:34:05;15.40;69.70
81524;DHT22;70954;49.500;10.416;2023-11-19T11:37:06;15.40;68.70
81524;DHT22;70954;49.500;10.416;2023-11-19T11:39:29;15.40;68.70
81524;DHT22;70954;49.500;10.416;2023-11-19T11:42:30;15.40;68.70
81524;DHT22;70954;49.500;10.416;2023-11-19T11:50:24;15.30;67.20
81524;DHT22;70954;49.500;10.416;2023-11-19T11:55:28;15.30;67.70
81524;DHT22;70954;49.500;10.416;2023-11-19T11:57:55;15.30;68.20
81524;DHT22;70954;49.500;10.416;2023-11-19T12:00:22;15.30;67.80
81524;DHT22;70954;49.500;10.416;2023-11-19T12:02:51;15.30;68.20
81524;DHT22;70954;49.500;10.416;2023-11-19T12:05:17;15.20;67.90
81524;DHT22;70954;49.500;10.416;2023-11-19T12:07:55;15.30;68.10
81524;DHT22;70954;49.500;10.416;2023-11-19T12:10:20;15.20;67.30
81524;DHT22;70954;49.500;10.416;2023-11-19T12:12:46;15.30;67.20
81524;DHT22;70954;49.500;10.416;2023-11-19T12:15:11;15.20;67.30
81524;DHT22;70954;49.500;10.416;2023-11-19T12:20:07;15.20;67.40
81524;DHT22;70954;49.500;10.416;2023-11-19T12:22:32;15.30;67.30
81524;DHT22;70954;49.500;10.416;2023-11-19T12:24:58;15.20;66.90
81524;DHT22;70954;49.500;10.416;2023-11-19T12:27:24;15.30;66.10
81524;DHT22;70954;49.500;10.416;2023-11-19T12:29:49;15.30;66.50
81524;DHT22;70954;49.500;10.416;2023-11-19T12:32:15;15.30;66.10
81524;DHT22;70954;49.500;10.416;2023-11-19T12:34:40;15.40;66.10
81524;DHT22;70954;49.500;10.416;2023-11-19T12:37:06;15.40;65.50
81524;DHT22;70954;49.500;10.416;2023-11-19T12:39:32;15.40;64.70
81524;DHT22;70954;49.500;10.416;2023-11-19T12:41:57;15.50;63.90
81524;DHT22;70954;49.500;10.416;2023-11-19T12:44:23;15.50;63.30
81524;DHT22;70954;49.500;10.416;2023-11-19T12:47:08;15.50;63.30
81524;DHT22;70954;49.500;10.416;2023-11-19T12:49:33;15.50;62.70
81524;DHT22;70954;49.500;10.416;2023-11-19T12:51:59;15.50;63.00
81524;DHT22;70954;49.500;10.416;2023-11-19T12:54:37;15.50;62.70
81524;DHT22;70954;49.500;10.416;2023-11-19T12:57:04;15.40;62.80
81524;DHT22;70954;49.500;10.416;2023-11-19T12:59:29;15.40;63.30
81524;DHT22;70954;49.500;10.416;2023-11-19T13:01:56;15.40;63.50
81524;DHT22;70954;49.500;10.416;2023-11-19T13:04:22;15.40;63.70
81524;DHT22;70954;49.500;10.416;2023-11-19T13:06:47;15.30;64.10
81524;DHT22;70954;49.500;10.416;2023-11-19T13:09:23;15.30;64.20
81524;DHT22;70954;49.500;10.416;2023-11-19T13:11:49;15.30;63.70
81524;DHT22;70954;49.500;10.416;2023-11-19T13:14:14;15.30;64.20
81524;DHT22;70954;49.500;10.416;2023-11-19T13:16:40;15.30;64.40
81524;DHT22;70954;49.500;10.416;2023-11-19T13:19:05;15.30;64.70
81524;DHT22;70954;49.500;10.416;2023-11-19T13:21:31;15.30;64.40
81524;DHT22;70954;49.500;10.416;2023-11-19T13:23:57;15.40;64.40
81524;DHT22;70954;49.500;10.416;2023-11-19T13:26:22;15.40;64.40
81524;DHT22;70954;49.500;10.416;2023-11-19T13:28:48;15.40;64.20
81524;DHT22;70954;49.500;10.416;2023-11-19T13:31:14;15.40;64.00
81524;DHT22;70954;49.500;10.416;2023-11-19T13:33:39;15.40;63.90
81524;DHT22;70954;49.500;10.416;2023-11-19T13:36:05;15.40;63.90
81524;DHT22;70954;49.500;10.416;2023-11-19T13:38:30;15.40;64.20
81524;DHT22;70954;49.500;10.416;2023-11-19T13:40:56;15.30;64.30
81524;DHT22;70954;49.500;10.416;2023-11-19T13:43:21;15.30;64.40
81524;DHT22;70954;49.500;10.416;2023-11-19T13:45:47;15.30;64.40
81524;DHT22;70954;49.500;10.416;2023-11-19T13:48:12;15.30;64.40
81524;DHT22;70954;49.500;10.416;2023-11-19T13:50:38;15.40;64.10
81524;DHT22;70954;49.500;10.416;2023-11-19T13:53:03;15.40;64.00
81524;DHT22;70954;49.500;10.416;2023-11-19T13:55:29;15.40;63.60
81524;DHT22;70954;49.500;10.416;2023-11-19T13:57:54;15.40;63.20
81524;DHT22;70954;49.500;10.416;2023-11-19T14:00:19;15.40;63.20
81524;DHT22;70954;49.500;10.416;2023-11-19T14:02:46;15.40;63.30
81524;DHT22;70954;49.500;10.416;2023-11-19T14:05:12;15.40;62.90
81524;DHT22;70954;49.500;10.416;2023-11-19T14:07:39;15.40;62.70
81524;DHT22;70954;49.500;10.416;2023-11-19T14:10:05;15.40;62.70
81524;DHT22;70954;49.500;10.416;2023-11-19T14:12:31;15.40;62.80
81524;DHT22;70954;49.500;10.416;2023-11-19T14:14:56;15.40;62.50
81524;DHT22;70954;49.500;10.416;2023-11-19T14:17:22;15.40;61.60
81524;DHT22;70954;49.500;10.416;2023-11-19T14:19:47;15.40;61.50
81524;DHT22;70954;49.500;10.416;2023-11-19T14:22:13;15.40;61.20
81524;DHT22;70954;49.500;10.416;2023-11-19T14:24:38;15.40;61.20
81524;DHT22;70954;49.500;10.416;2023-11-19T14:27:04;15.40;61.40
81524;DHT22;70954;49.500;10.416;2023-11-19T14:29:29;15.50;61.50
81524;DHT22;70954;49.500;10.416;2023-11-19T14:31:55;15.50;60.90
81524;DHT22;70954;49.500;10.416;2023-11-19T14:34:21;15.50;60.90
81524;DHT22;70954;49.500;10.416;2023-11-19T14:36:46;15.50;61.00
81524;DHT22;70954;49.500;10.416;2023-11-19T14:39:12;15.50;60.80
81524;DHT22;70954;49.500;10.416;2023-11-19T14:41:37;15.50;60.20
81524;DHT22;70954;49.500;10.416;2023-11-19T14:44:02;15.40;60.50
81524;DHT22;70954;49.500;10.416;2023-11-19T14:46:28;15.40;60.50
81524;DHT22;70954;49.500;10.416;2023-11-19T14:48:53;15.40;60.70
81524;DHT22;70954;49.500;10.416;2023-11-19T14:51:19;15.40;60.90
81524;DHT22;70954;49.500;10.416;2023-11-19T14:53:44;15.40;60.70
81524;DHT22;70954;49.500;10.416;2023-11-19T14:56:10;15.30;61.00
81524;DHT22;70954;49.500;10.416;2023-11-19T14:58:36;15.30;60.80
81524;DHT22;70954;49.500;10.416;2023-11-19T15:01:01;15.30;60.80
81524;DHT22;70954;49.500;10.416;2023-11-19T15:03:27;15.30;60.90
81524;DHT22;70954;49.500;10.416;2023-11-19T15:05:52;15.20;61.00
81524;DHT22;70954;49.500;10.416;2023-11-19T15:08:18;15.20;61.00
81524;DHT22;70954;49.500;10.416;2023-11-19T15:10:43;15.20;61.20
81524;DHT22;70954;49.500;10.416;2023-11-19T15:13:09;15.20;61.40
81524;DHT22;70954;49.500;10.416;2023-11-19T15:15:34;15.10;61.50
81524;DHT22;70954;49.500;10.416;2023-11-19T15:18:00;15.10;61.40
81524;DHT22;70954;49.500;10.416;2023-11-19T15:20:26;15.00;61.20
81524;DHT22;70954;49.500;10.416;2023-11-19T15:22:51;15.00;61.40
81524;DHT22;70954;49.500;10.416;2023-11-19T15:25:16;15.00;61.40
81524;DHT22;70954;49.500;10.416;2023-11-19T15:27:42;15.00;61.40
81524;DHT22;70954;49.500;10.416;2023-11-19T15:30:08;14.90;61.60
81524;DHT22;70954;49.500;10.416;2023-11-19T15:32:33;14.90;61.60